Time;durP1;ratioP1;P1;durP2;ratioP2;P2;SDS_P1;SDS_P2;PMS_P1;PMS_P2;Temp;Humidity;BMP_temperature;BMP_pressure;BME280_temperature;BME280_humidity;BME280_pressure;Samples;Min_cycle;Max_cycle;Signal;HPM_P1;HPM_P2
2021/11/16 00:01:41;;;;;;;22.60;11.90;;;6.00;99.90;;;;;;5030029;28;20673;-70
2021/11/16 00:04:08;;;;;;;22.80;11.10;;;6.10;99.90;;;;;;5017601;28;20216;-68
2021/11/16 00:06:35;;;;;;;24.47;14.07;;;6.10;99.90;;;;;;5028826;28;20164;-68
2021/11/16 00:09:04;;;;;;;27.70;13.60;;;6.00;99.90;;;;;;5034738;28;20422;-68
2021/11/16 00:11:30;;;;;;;25.70;13.03;;;6.00;99.90;;;;;;5034843;28;20485;-67
2021/11/16 00:13:55;;;;;;;26.93;12.60;;;6.00;99.90;;;;;;5034817;28;20835;-69
2021/11/16 00:16:24;;;;;;;21.90;12.97;;;6.00;99.90;;;;;;5035031;28;20209;-67
2021/11/16 00:18:59;;;;;;;23.60;12.67;;;6.00;99.90;;;;;;5034793;28;20430;-69
2021/11/16 00:21:26;;;;;;;25.20;13.23;;;6.00;99.90;;;;;;5034931;28;20860;-67
2021/11/16 00:24:01;;;;;;;21.80;12.00;;;6.00;99.90;;;;;;5034598;28;20929;-68
2021/11/16 00:26:27;;;;;;;25.13;13.43;;;6.00;99.90;;;;;;5034660;28;20485;-68
2021/11/16 00:28:56;;;;;;;25.03;11.93;;;6.00;99.90;;;;;;5034675;28;21095;-67
2021/11/16 00:31:22;;;;;;;26.57;15.10;;;6.00;99.90;;;;;;5033371;28;20171;-68
2021/11/16 00:33:48;;;;;;;37.80;13.30;;;6.00;99.90;;;;;;5034309;28;20805;-68
2021/11/16 00:36:14;;;;;;;31.00;13.40;;;6.00;99.90;;;;;;5034857;28;20225;-69
2021/11/16 00:38:41;;;;;;;38.10;15.27;;;5.90;99.90;;;;;;5034694;28;20414;-70
2021/11/16 00:41:07;;;;;;;21.83;14.37;;;6.00;99.90;;;;;;5023089;28;20411;-69
2021/11/16 00:43:36;;;;;;;31.87;12.73;;;5.90;99.90;;;;;;5013630;28;20415;-68
2021/11/16 00:46:04;;;;;;;18.97;11.90;;;5.90;99.90;;;;;;5014800;28;20408;-68
2021/11/16 00:48:30;;;;;;;27.30;11.50;;;5.90;99.90;;;;;;5034108;28;20500;-68
2021/11/16 00:50:59;;;;;;;27.07;13.90;;;5.90;99.90;;;;;;5034582;28;20426;-67
2021/11/16 00:53:29;;;;;;;28.37;14.97;;;6.00;99.90;;;;;;5033167;28;20180;-69
2021/11/16 00:55:55;;;;;;;24.37;10.83;;;6.00;99.90;;;;;;5034417;28;20501;-70
2021/11/16 00:58:21;;;;;;;24.90;13.97;;;6.00;99.90;;;;;;5033783;28;20450;-69
2021/11/16 01:00:47;;;;;;;33.27;15.07;;;6.00;99.90;;;;;;5032396;28;20427;-69
2021/11/16 01:03:15;;;;;;;26.23;14.03;;;6.00;99.90;;;;;;5034681;28;20912;-69
2021/11/16 01:05:47;;;;;;;20.67;12.27;;;6.00;99.90;;;;;;5040808;28;20509;-69
2021/11/16 01:08:17;;;;;;;24.80;12.73;;;6.00;99.90;;;;;;5042603;28;20486;-69
2021/11/16 01:10:44;;;;;;;23.13;13.87;;;6.00;99.90;;;;;;5033851;28;20433;-68
2021/11/16 01:13:09;;;;;;;25.40;12.40;;;6.00;99.90;;;;;;5032623;28;20987;-67
2021/11/16 01:15:38;;;;;;;22.83;12.10;;;5.90;99.90;;;;;;5033525;28;20427;-69
2021/11/16 01:18:04;;;;;;;25.83;14.07;;;6.00;99.90;;;;;;5033550;28;20187;-67
2021/11/16 01:20:31;;;;;;;25.63;11.83;;;6.00;99.90;;;;;;5033400;28;20471;-67
2021/11/16 01:22:58;;;;;;;21.73;12.70;;;5.90;99.90;;;;;;5033832;28;20406;-67
2021/11/16 01:25:26;;;;;;;25.23;12.17;;;5.90;99.90;;;;;;5033413;28;20505;-69
2021/11/16 01:27:57;;;;;;;27.53;13.23;;;6.00;99.90;;;;;;5033376;28;20457;-69
2021/11/16 01:30:27;;;;;;;22.63;11.23;;;5.90;99.90;;;;;;5033431;28;20429;-68
2021/11/16 01:35:49;;;;;;;28.60;13.17;;;5.90;99.90;;;;;;4972052;28;20409;-70
2021/11/16 01:38:19;;;;;;;24.73;11.90;;;5.90;99.90;;;;;;5012702;28;20781;-69
2021/11/16 01:40:46;;;;;;;25.93;13.83;;;5.80;99.90;;;;;;5012342;28;20471;-69
2021/11/16 01:43:13;;;;;;;28.93;14.93;;;5.80;99.90;;;;;;5013834;28;20777;-69
2021/11/16 01:45:41;;;;;;;26.43;15.33;;;5.80;99.90;;;;;;5013751;28;20403;-67
2021/11/16 01:48:10;;;;;;;25.30;13.53;;;5.70;99.90;;;;;;5013395;28;20462;-67
2021/11/16 01:50:38;;;;;;;40.17;14.83;;;5.70;99.90;;;;;;5013278;28;20750;-68
2021/11/16 01:53:04;;;;;;;30.00;15.53;;;5.80;99.90;;;;;;5013301;28;20415;-69
2021/11/16 01:55:29;;;;;;;29.50;12.97;;;5.70;99.90;;;;;;5013310;28;20419;-69
2021/11/16 01:57:56;;;;;;;25.23;13.20;;;5.80;99.90;;;;;;5013347;28;20180;-68
2021/11/16 02:00:28;;;;;;;22.70;14.37;;;5.80;99.90;;;;;;5013269;28;20235;-66
2021/11/16 02:02:54;;;;;;;23.43;13.17;;;5.70;99.90;;;;;;5013086;28;20418;-67
2021/11/16 02:05:20;;;;;;;28.73;12.93;;;5.70;99.90;;;;;;5013089;28;20506;-68
2021/11/16 02:07:48;;;;;;;29.53;13.50;;;5.70;99.90;;;;;;5013204;28;20538;-69
2021/11/16 02:10:15;;;;;;;33.60;14.23;;;5.70;99.90;;;;;;5013200;28;20431;-68
2021/11/16 02:12:42;;;;;;;24.40;14.63;;;5.80;99.90;;;;;;5013597;28;20407;-68
2021/11/16 02:15:11;;;;;;;35.13;15.83;;;5.80;99.90;;;;;;5013141;28;20426;-69
2021/11/16 02:17:37;;;;;;;30.97;12.90;;;5.70;99.90;;;;;;5013420;28;20458;-68
2021/11/16 02:20:05;;;;;;;27.17;14.13;;;5.70;99.90;;;;;;5012972;28;20467;-68
2021/11/16 02:22:31;;;;;;;23.77;13.17;;;5.70;99.90;;;;;;5013099;28;20412;-68
2021/11/16 02:24:57;;;;;;;27.27;15.37;;;5.70;99.90;;;;;;5011564;28;21074;-69
2021/11/16 02:27:23;;;;;;;26.67;15.70;;;5.70;99.90;;;;;;5028055;28;20208;-68
2021/11/16 02:29:49;;;;;;;24.20;14.23;;;5.70;99.90;;;;;;5028571;28;20447;-68
2021/11/16 02:32:15;;;;;;;20.87;13.37;;;5.70;99.90;;;;;;5032408;28;20168;-68
2021/11/16 02:34:40;;;;;;;22.70;13.23;;;5.60;99.90;;;;;;5032377;28;20251;-69
2021/11/16 02:37:06;;;;;;;28.27;14.87;;;5.60;99.90;;;;;;5032424;28;20936;-68
2021/11/16 02:39:31;;;;;;;27.00;13.03;;;5.60;99.90;;;;;;5032173;28;20206;-70
2021/11/16 02:41:58;;;;;;;19.57;13.30;;;5.60;99.90;;;;;;5032037;28;20235;-70
2021/11/16 02:44:26;;;;;;;35.93;14.73;;;5.60;99.90;;;;;;5032155;28;20597;-68
2021/11/16 02:46:52;;;;;;;22.87;12.07;;;5.60;99.90;;;;;;5032038;28;20468;-67
2021/11/16 02:49:18;;;;;;;23.27;16.47;;;5.60;99.90;;;;;;5031950;28;20827;-67
2021/11/16 02:51:47;;;;;;;17.47;11.10;;;5.60;99.90;;;;;;5031975;28;20775;-69
2021/11/16 02:54:17;;;;;;;23.37;12.47;;;5.60;99.90;;;;;;5031960;28;20797;-68
2021/11/16 02:56:45;;;;;;;19.97;12.77;;;5.60;99.90;;;;;;5031984;28;20402;-68
2021/11/16 02:59:10;;;;;;;26.83;14.10;;;5.60;99.90;;;;;;5031833;28;20430;-69
2021/11/16 03:01:38;;;;;;;26.40;13.93;;;5.60;99.90;;;;;;5032034;28;20410;-67
2021/11/16 03:04:04;;;;;;;28.33;13.70;;;5.50;99.90;;;;;;5031736;28;20509;-67
2021/11/16 03:06:30;;;;;;;23.70;14.20;;;5.60;99.90;;;;;;5031819;28;20486;-68
2021/11/16 03:08:56;;;;;;;30.67;15.83;;;5.60;99.90;;;;;;5031703;28;20554;-67
2021/11/16 03:11:22;;;;;;;30.33;17.33;;;5.60;99.90;;;;;;5031367;28;20194;-68
2021/11/16 03:13:48;;;;;;;25.47;13.47;;;5.60;99.90;;;;;;5031626;28;20446;-67
2021/11/16 03:16:19;;;;;;;27.17;16.03;;;5.60;99.90;;;;;;5031805;28;20455;-67
2021/11/16 03:18:49;;;;;;;26.13;13.03;;;5.60;99.90;;;;;;5031614;28;20430;-69
2021/11/16 03:21:16;;;;;;;26.40;14.93;;;5.60;99.90;;;;;;5035035;28;20414;-68
2021/11/16 03:23:44;;;;;;;38.87;15.73;;;5.60;99.90;;;;;;5035708;28;20410;-67
2021/11/16 03:26:12;;;;;;;29.20;15.13;;;5.60;99.90;;;;;;5035851;28;20489;-69
2021/11/16 03:28:40;;;;;;;25.40;15.00;;;5.60;99.90;;;;;;5035731;28;20458;-69
2021/11/16 03:31:20;;;;;;;25.37;12.03;;;5.50;99.90;;;;;;5035671;28;20429;-68
2021/11/16 03:33:47;;;;;;;23.77;12.40;;;5.50;99.90;;;;;;5035995;28;20474;-69
2021/11/16 03:36:13;;;;;;;26.50;15.03;;;5.50;99.90;;;;;;5035429;28;20431;-68
2021/11/16 03:38:40;;;;;;;28.83;17.63;;;5.50;99.90;;;;;;5035687;28;20398;-69
2021/11/16 03:41:06;;;;;;;27.13;13.40;;;5.50;99.90;;;;;;5035567;28;20837;-68
2021/11/16 03:43:35;;;;;;;25.43;12.70;;;5.50;99.90;;;;;;5035366;28;20856;-68
2021/11/16 03:46:01;;;;;;;26.03;13.67;;;5.50;99.90;;;;;;5035695;28;20845;-68
2021/11/16 03:48:28;;;;;;;24.60;13.77;;;5.50;99.90;;;;;;5035502;28;20560;-69
2021/11/16 03:50:56;;;;;;;27.10;12.27;;;5.60;99.90;;;;;;5035201;28;20858;-69
2021/11/16 03:53:22;;;;;;;31.70;15.27;;;5.60;99.90;;;;;;5035245;28;20402;-69
2021/11/16 03:55:49;;;;;;;41.33;15.50;;;5.60;99.90;;;;;;5035335;28;20406;-69
2021/11/16 03:58:18;;;;;;;28.70;12.93;;;5.60;99.90;;;;;;5035298;28;20555;-68
2021/11/16 04:00:57;;;;;;;22.67;12.47;;;5.60;99.90;;;;;;5034964;28;20425;-68
2021/11/16 04:03:25;;;;;;;22.97;15.17;;;5.60;99.90;;;;;;5035049;28;20413;-68
2021/11/16 04:05:53;;;;;;;24.07;15.20;;;5.60;99.90;;;;;;5035079;28;20403;-68
2021/11/16 04:08:18;;;;;;;26.20;14.10;;;5.60;99.90;;;;;;5034940;28;20454;-68
2021/11/16 04:10:44;;;;;;;26.73;14.83;;;5.50;99.90;;;;;;5034897;28;20425;-69
2021/11/16 04:13:12;;;;;;;21.23;9.80;;;5.50;99.90;;;;;;5034821;28;20195;-69
2021/11/16 04:15:38;;;;;;;19.70;12.57;;;5.50;99.90;;;;;;5034832;28;20407;-67
2021/11/16 04:18:05;;;;;;;22.13;11.13;;;5.50;99.90;;;;;;5034709;28;20460;-67
2021/11/16 04:20:34;;;;;;;22.87;12.70;;;5.50;99.90;;;;;;5034754;28;20418;-69
2021/11/16 04:23:01;;;;;;;16.83;12.63;;;5.50;99.90;;;;;;5033245;28;20464;-67
2021/11/16 04:25:27;;;;;;;21.57;12.63;;;5.50;99.90;;;;;;5034629;28;20413;-67
2021/11/16 04:27:54;;;;;;;29.20;10.30;;;5.50;99.90;;;;;;5034550;28;21029;-68
2021/11/16 04:30:22;;;;;;;24.80;12.67;;;5.50;99.90;;;;;;5034421;28;20450;-67
2021/11/16 04:32:48;;;;;;;29.37;14.10;;;5.40;99.90;;;;;;5034053;28;20398;-67
2021/11/16 04:35:15;;;;;;;17.93;11.93;;;5.50;99.90;;;;;;5034660;28;20486;-67
2021/11/16 04:37:44;;;;;;;29.73;12.70;;;5.40;99.90;;;;;;5034566;28;20925;-70
2021/11/16 04:40:11;;;;;;;24.67;13.73;;;5.40;99.90;;;;;;5034179;28;20422;-69
2021/11/16 04:42:38;;;;;;;27.43;14.57;;;5.40;99.90;;;;;;5034397;28;20493;-70
2021/11/16 04:45:11;;;;;;;17.90;9.90;;;5.40;99.90;;;;;;5034124;28;20928;-69
2021/11/16 05:03:42;;;;;;;29.87;13.90;;;5.50;99.90;;;;;;5033846;28;20494;-68
2021/11/16 05:06:08;;;;;;;19.33;12.17;;;5.50;99.90;;;;;;5033889;28;20956;-68
2021/11/16 05:08:34;;;;;;;29.67;13.20;;;5.50;99.90;;;;;;5033859;28;20271;-69
2021/11/16 05:11:00;;;;;;;23.20;11.93;;;5.50;99.90;;;;;;5033696;28;20450;-69
2021/11/16 05:13:25;;;;;;;24.13;12.63;;;5.50;99.90;;;;;;5033737;28;20195;-68
2021/11/16 05:15:51;;;;;;;25.60;14.03;;;5.50;99.90;;;;;;5033878;28;20171;-68
2021/11/16 05:18:17;;;;;;;26.70;12.60;;;5.50;99.90;;;;;;5033536;28;20558;-67
2021/11/16 05:20:42;;;;;;;22.33;12.83;;;5.50;99.90;;;;;;5033619;28;20691;-67
2021/11/16 05:23:10;;;;;;;24.07;13.13;;;5.50;99.90;;;;;;5033704;28;20730;-67
2021/11/16 05:25:36;;;;;;;26.43;12.17;;;5.50;99.90;;;;;;5033821;28;20184;-67
2021/11/16 05:28:02;;;;;;;30.77;12.93;;;5.50;99.90;;;;;;5033585;28;20461;-68
2021/11/16 05:30:29;;;;;;;24.93;14.23;;;5.50;99.90;;;;;;5033522;28;20483;-70
2021/11/16 05:32:56;;;;;;;25.83;13.17;;;5.60;99.90;;;;;;5033854;28;20449;-69
2021/11/16 05:35:22;;;;;;;26.97;14.70;;;5.60;99.90;;;;;;5033713;28;20406;-68
2021/11/16 05:37:47;;;;;;;31.77;15.30;;;5.50;99.90;;;;;;5033753;28;20414;-68
2021/11/16 05:40:14;;;;;;;26.33;13.47;;;5.50;99.90;;;;;;5033379;28;20285;-67
2021/11/16 05:42:39;;;;;;;28.70;13.50;;;5.50;99.90;;;;;;5033061;28;20176;-67
2021/11/16 05:45:06;;;;;;;29.03;13.70;;;5.50;99.90;;;;;;5032529;28;20476;-68
2021/11/16 05:47:32;;;;;;;21.87;14.00;;;5.50;99.90;;;;;;5033026;28;20682;-68
2021/11/16 05:49:58;;;;;;;23.47;14.10;;;5.60;99.90;;;;;;5033312;28;20501;-68
2021/11/16 05:52:23;;;;;;;29.00;12.30;;;5.60;99.90;;;;;;5033111;28;20969;-68
2021/11/16 05:54:52;;;;;;;23.67;12.67;;;5.60;99.90;;;;;;5032963;28;20179;-68
2021/11/16 05:57:18;;;;;;;31.27;17.07;;;5.60;99.90;;;;;;5033133;28;20171;-68
2021/11/16 05:59:43;;;;;;;25.50;12.13;;;5.50;99.90;;;;;;5032928;28;20774;-68
2021/11/16 06:02:10;;;;;;;31.00;14.97;;;5.50;99.90;;;;;;5033444;28;20222;-68
2021/11/16 06:04:36;;;;;;;26.10;13.30;;;5.50;99.90;;;;;;5032931;28;20175;-68
2021/11/16 06:07:04;;;;;;;27.07;14.50;;;5.50;99.90;;;;;;5032929;28;20490;-68
2021/11/16 06:09:31;;;;;;;22.33;14.07;;;5.50;99.90;;;;;;5032721;28;20795;-67
2021/11/16 06:11:59;;;;;;;28.37;13.07;;;5.60;99.90;;;;;;5032746;28;20403;-67
2021/11/16 06:14:25;;;;;;;23.87;11.50;;;5.50;99.90;;;;;;5032471;28;20482;-68
2021/11/16 06:16:50;;;;;;;25.93;11.60;;;5.60;99.90;;;;;;5032498;28;20957;-68
2021/11/16 06:19:19;;;;;;;27.40;15.70;;;5.60;99.90;;;;;;5032477;28;20509;-69
2021/11/16 06:21:46;;;;;;;29.87;13.87;;;5.60;99.90;;;;;;5032551;28;20631;-68
2021/11/16 06:27:11;;;;;;;28.33;15.90;;;5.70;99.90;;;;;;5032443;28;20454;-68
2021/11/16 06:29:37;;;;;;;25.53;13.20;;;5.70;99.90;;;;;;5032207;28;20423;-68
2021/11/16 06:32:05;;;;;;;36.17;15.93;;;5.70;99.90;;;;;;5032680;28;20174;-68
2021/11/16 06:34:31;;;;;;;30.27;13.90;;;5.70;99.90;;;;;;5032401;28;20195;-69
2021/11/16 06:36:56;;;;;;;24.23;12.00;;;5.70;99.90;;;;;;5032491;28;20480;-68
2021/11/16 06:39:22;;;;;;;22.13;11.93;;;5.70;99.90;;;;;;5032147;28;20664;-69
2021/11/16 06:41:49;;;;;;;31.70;13.70;;;5.60;99.90;;;;;;5032643;28;20242;-67
2021/11/16 06:44:18;;;;;;;24.47;14.47;;;5.60;99.90;;;;;;5032070;28;20156;-68
2021/11/16 06:46:45;;;;;;;26.30;11.40;;;5.60;99.90;;;;;;5031952;28;20407;-67
2021/11/16 06:49:11;;;;;;;23.80;12.23;;;5.60;99.90;;;;;;5031839;28;20454;-68
2021/11/16 06:51:38;;;;;;;27.10;12.20;;;5.70;99.90;;;;;;5032023;28;20430;-68
2021/11/16 06:54:10;;;;;;;16.77;8.73;;;5.60;99.90;;;;;;5031552;28;20815;-67
2021/11/16 06:56:37;;;;;;;20.73;11.20;;;5.60;99.90;;;;;;5031911;28;20413;-68
2021/11/16 06:59:04;;;;;;;20.40;13.73;;;5.60;99.90;;;;;;5031804;28;21003;-69
2021/11/16 07:01:30;;;;;;;27.03;11.83;;;5.60;99.90;;;;;;5030989;28;20783;-68
2021/11/16 07:04:03;;;;;;;21.83;11.13;;;5.70;99.90;;;;;;5030279;28;20434;-68
2021/11/16 07:06:29;;;;;;;22.00;11.43;;;5.70;99.90;;;;;;5031841;28;20430;-69
2021/11/16 07:08:55;;;;;;;22.20;11.43;;;5.70;99.90;;;;;;5031640;28;20477;-68
2021/11/16 07:11:22;;;;;;;23.13;10.33;;;5.80;99.90;;;;;;5031985;28;20172;-68
2021/11/16 07:14:08;;;;;;;31.80;12.73;;;5.80;99.90;;;;;;5031973;28;20521;-67
2021/11/16 07:16:56;;;;;;;17.47;10.60;;;5.80;99.90;;;;;;5032121;28;20399;-69
2021/11/16 07:19:55;;;;;;;15.80;10.93;;;5.80;99.90;;;;;;5031747;28;20488;-69
2021/11/16 07:22:23;;;;;;;26.20;12.03;;;5.70;99.90;;;;;;5020262;28;20424;-68
2021/11/16 07:24:56;;;;;;;21.20;10.70;;;5.80;99.90;;;;;;5031601;28;20401;-69
2021/11/16 07:27:38;;;;;;;22.43;11.23;;;5.80;99.90;;;;;;5031834;28;20450;-68
2021/11/16 07:30:09;;;;;;;20.43;10.80;;;5.80;99.90;;;;;;5031885;28;20429;-68
2021/11/16 07:32:46;;;;;;;23.73;11.17;;;5.80;99.90;;;;;;5031604;28;20418;-69
2021/11/16 07:35:15;;;;;;;27.93;11.33;;;5.80;99.90;;;;;;5031677;28;20398;-67
2021/11/16 07:37:42;;;;;;;24.43;14.50;;;5.90;99.90;;;;;;5031531;28;20406;-69
2021/11/16 07:40:16;;;;;;;21.17;12.57;;;5.80;99.90;;;;;;5031481;28;20425;-69
2021/11/16 07:42:57;;;;;;;22.17;9.80;;;5.80;99.90;;;;;;5031692;28;20464;-68
2021/11/16 07:45:34;;;;;;;26.00;9.23;;;5.90;99.90;;;;;;5031388;28;20816;-69
2021/11/16 07:48:08;;;;;;;24.97;10.33;;;5.80;99.90;;;;;;5031523;28;20454;-67
2021/11/16 07:50:47;;;;;;;19.70;10.20;;;5.90;99.90;;;;;;5031295;28;20827;-68
2021/11/16 07:53:21;;;;;;;32.07;11.27;;;5.90;99.90;;;;;;5030208;28;20455;-67
2021/11/16 07:55:53;;;;;;;33.13;11.90;;;6.00;99.90;;;;;;5027454;28;20449;-69
2021/11/16 07:58:21;;;;;;;27.07;13.20;;;6.00;99.90;;;;;;5026802;28;20429;-71
2021/11/16 08:00:48;;;;;;;31.47;14.27;;;6.00;99.90;;;;;;5031063;28;20864;-68
2021/11/16 08:03:18;;;;;;;25.47;12.40;;;6.00;99.90;;;;;;5030995;28;20402;-70
2021/11/16 08:11:11;;;;;;;20.90;11.57;;;6.10;99.90;;;;;;5025570;28;20444;-68
2021/11/16 08:13:36;;;;;;;22.67;12.17;;;6.10;99.90;;;;;;5019324;28;20506;-68
2021/11/16 08:16:12;;;;;;;14.23;11.10;;;6.10;99.90;;;;;;5031182;28;20826;-68
2021/11/16 08:18:43;;;;;;;28.53;14.37;;;6.10;99.90;;;;;;5034240;28;20600;-69
2021/11/16 08:21:08;;;;;;;25.30;12.63;;;6.20;99.90;;;;;;5034750;28;20407;-70
2021/11/16 08:23:34;;;;;;;24.10;13.40;;;6.30;99.90;;;;;;5025674;28;20434;-68
2021/11/16 08:25:59;;;;;;;25.97;13.23;;;6.30;99.90;;;;;;5029283;28;20544;-68
2021/11/16 08:28:26;;;;;;;27.50;11.70;;;6.40;99.90;;;;;;5034587;28;20191;-69
2021/11/16 08:30:53;;;;;;;22.30;12.50;;;6.50;99.90;;;;;;5034372;28;20199;-69
2021/11/16 08:33:19;;;;;;;26.40;12.57;;;6.40;99.90;;;;;;5033368;28;20463;-69
2021/11/16 08:35:48;;;;;;;29.83;12.50;;;6.50;99.90;;;;;;5034465;28;20451;-69
2021/11/16 08:38:14;;;;;;;22.73;11.17;;;6.50;99.90;;;;;;5034483;28;21008;-70
2021/11/16 08:40:45;;;;;;;25.93;11.43;;;6.60;99.90;;;;;;5025600;28;20492;-70
2021/11/16 08:43:15;;;;;;;24.83;12.77;;;6.60;99.90;;;;;;5014996;28;20184;-70
2021/11/16 08:45:52;;;;;;;20.03;10.90;;;6.60;99.90;;;;;;5014777;28;20423;-68
2021/11/16 08:48:21;;;;;;;30.03;12.77;;;6.60;99.90;;;;;;5014594;28;20458;-70
2021/11/16 08:50:56;;;;;;;28.43;14.40;;;6.70;99.90;;;;;;5014565;28;20417;-69
2021/11/16 08:53:30;;;;;;;19.33;12.23;;;6.70;99.90;;;;;;5014516;28;20407;-70
2021/11/16 08:55:56;;;;;;;23.37;10.87;;;6.70;99.90;;;;;;5014793;28;20419;-68
2021/11/16 08:58:26;;;;;;;25.10;12.40;;;6.70;99.90;;;;;;5014491;28;20416;-71
2021/11/16 09:00:55;;;;;;;32.47;14.47;;;6.70;99.90;;;;;;5014250;28;20426;-69
2021/11/16 09:03:26;;;;;;;31.13;13.60;;;6.90;99.90;;;;;;5017880;28;20414;-70
2021/11/16 09:05:53;;;;;;;22.47;11.10;;;6.80;99.90;;;;;;5032912;28;20781;-69
2021/11/16 09:08:27;;;;;;;23.00;11.10;;;7.00;99.90;;;;;;5033952;28;20458;-69
2021/11/16 09:11:00;;;;;;;25.20;12.13;;;7.00;99.90;;;;;;5034177;28;20786;-69
2021/11/16 09:13:28;;;;;;;24.57;14.40;;;7.00;99.90;;;;;;5034414;28;20406;-68
2021/11/16 09:16:07;;;;;;;22.47;12.27;;;7.00;99.90;;;;;;5033897;28;20410;-68
2021/11/16 09:18:40;;;;;;;25.13;13.03;;;7.10;99.90;;;;;;5033816;28;20481;-69
2021/11/16 09:21:16;;;;;;;29.23;12.43;;;7.20;99.90;;;;;;5033948;28;20765;-69
2021/11/16 09:24:04;;;;;;;26.37;13.90;;;7.20;99.90;;;;;;5033734;28;20433;-69
2021/11/16 09:26:37;;;;;;;21.43;11.00;;;7.20;99.90;;;;;;5033917;28;20529;-70
2021/11/16 09:29:12;;;;;;;18.90;10.17;;;7.20;99.90;;;;;;5033679;28;20835;-69
2021/11/16 09:31:46;;;;;;;25.83;11.03;;;7.20;99.90;;;;;;5033705;28;20724;-71
2021/11/16 09:34:16;;;;;;;18.83;11.73;;;7.20;99.90;;;;;;5033603;28;20425;-70
2021/11/16 09:36:44;;;;;;;23.07;11.93;;;7.20;99.90;;;;;;5033374;28;20399;-68
2021/11/16 09:39:17;;;;;;;27.87;11.37;;;7.20;99.90;;;;;;5033798;28;20441;-68
2021/11/16 09:41:50;;;;;;;19.63;9.70;;;7.30;99.90;;;;;;5033395;28;20438;-68
2021/11/16 09:44:23;;;;;;;17.77;10.40;;;7.40;99.90;;;;;;5033193;28;20774;-68
2021/11/16 09:47:03;;;;;;;26.87;12.07;;;7.40;99.90;;;;;;5033433;28;20415;-69
2021/11/16 09:49:33;;;;;;;21.70;10.50;;;7.60;99.90;;;;;;5033063;28;20501;-69
2021/11/16 09:52:05;;;;;;;20.93;9.57;;;7.70;99.90;;;;;;5033252;28;20438;-68
2021/11/16 09:54:31;;;;;;;31.80;11.80;;;7.70;99.90;;;;;;5033229;28;20409;-68
2021/11/16 09:57:15;;;;;;;20.13;9.97;;;7.80;99.90;;;;;;5033491;28;20403;-69
2021/11/16 09:59:48;;;;;;;26.97;10.67;;;7.70;99.90;;;;;;5033947;28;20426;-69
2021/11/16 10:02:25;;;;;;;19.13;11.47;;;7.70;99.90;;;;;;5034340;28;20821;-68
2021/11/16 10:04:53;;;;;;;25.93;12.33;;;7.70;99.90;;;;;;5034228;28;20425;-67
2021/11/16 10:07:20;;;;;;;20.20;10.87;;;7.60;99.90;;;;;;5033852;28;20445;-69
2021/11/16 10:09:48;;;;;;;20.17;11.17;;;7.60;99.90;;;;;;5032218;28;20477;-68
2021/11/16 10:12:16;;;;;;;21.43;10.73;;;7.60;99.90;;;;;;5032069;28;20423;-67
2021/11/16 10:14:42;;;;;;;32.47;13.97;;;7.50;99.90;;;;;;5033086;28;20410;-67
2021/11/16 10:17:07;;;;;;;24.00;10.90;;;7.50;99.90;;;;;;5032899;28;20499;-68
2021/11/16 10:19:34;;;;;;;19.37;10.10;;;7.50;99.90;;;;;;5031565;28;20189;-68
2021/11/16 10:22:00;;;;;;;19.83;11.27;;;7.50;99.90;;;;;;5032028;28;20192;-68
2021/11/16 10:24:32;;;;;;;21.10;12.30;;;7.60;99.90;;;;;;5032756;28;20437;-69
2021/11/16 10:27:22;;;;;;;23.37;9.80;;;7.60;99.90;;;;;;5033023;28;20526;-68
2021/11/16 10:30:09;;;;;;;19.27;9.80;;;7.60;99.90;;;;;;5032086;28;20442;-68
2021/11/16 10:32:36;;;;;;;23.20;10.90;;;7.60;99.90;;;;;;5033474;28;20838;-68
2021/11/16 10:35:12;;;;;;;17.83;10.63;;;7.70;99.90;;;;;;5031609;28;20415;-68
2021/11/16 10:37:46;;;;;;;22.27;11.70;;;7.90;99.90;;;;;;5032529;28;20429;-69
2021/11/16 10:40:13;;;;;;;32.20;13.03;;;7.90;99.90;;;;;;5033195;28;20428;-69
2021/11/16 10:42:48;;;;;;;17.43;9.67;;;7.90;99.90;;;;;;5033297;28;20757;-68
2021/11/16 10:45:17;;;;;;;27.37;10.00;;;7.90;99.90;;;;;;5033737;28;20464;-71
2021/11/16 10:47:46;;;;;;;24.27;10.03;;;7.80;99.90;;;;;;5032419;28;20458;-69
2021/11/16 10:50:15;;;;;;;25.37;12.63;;;7.70;99.90;;;;;;5031985;28;21021;-70
2021/11/16 10:52:41;;;;;;;22.07;11.53;;;7.80;99.90;;;;;;5032082;28;20407;-69
2021/11/16 10:55:08;;;;;;;22.10;10.43;;;8.00;99.90;;;;;;5032066;28;20411;-69
2021/11/16 10:58:10;;;;;;;18.40;9.30;;;8.10;99.90;;;;;;5032005;28;20984;-70
2021/11/16 11:00:51;;;;;;;24.50;8.90;;;8.10;99.90;;;;;;5009549;28;20519;-70
2021/11/16 11:03:23;;;;;;;27.03;12.10;;;8.30;99.90;;;;;;5029679;28;20476;-69
2021/11/16 11:05:56;;;;;;;21.17;10.40;;;8.20;99.90;;;;;;5034401;28;20418;-69
2021/11/16 11:08:30;;;;;;;31.60;12.20;;;8.20;99.90;;;;;;5031652;28;20466;-70
2021/11/16 11:10:55;;;;;;;22.73;10.50;;;8.40;99.90;;;;;;5031796;28;20456;-69
2021/11/16 11:13:23;;;;;;;25.27;10.83;;;8.50;99.90;;;;;;5030661;28;20466;-70
2021/11/16 11:15:50;;;;;;;22.67;11.10;;;8.50;99.90;;;;;;5031682;28;20709;-69
2021/11/16 11:18:33;;;;;;;23.10;10.17;;;8.60;99.90;;;;;;5031851;28;20439;-69
2021/11/16 11:21:00;;;;;;;18.43;10.27;;;8.70;99.90;;;;;;5031604;28;20442;-69
2021/11/16 11:23:40;;;;;;;18.33;9.53;;;8.70;99.90;;;;;;5032239;28;20410;-70
2021/11/16 11:27:10;;;;;;;17.30;9.07;;;8.80;99.90;;;;;;5032471;28;20827;-69
2021/11/16 11:29:27;;;;;;;16.17;7.73;;;8.70;99.90;;;;;;5027317;28;20468;-69
2021/11/16 11:32:11;;;;;;;20.87;9.93;;;8.60;99.90;;;;;;5031568;28;20419;-71
2021/11/16 11:34:42;;;;;;;22.50;9.37;;;8.60;99.90;;;;;;5031471;28;20742;-69
2021/11/16 11:37:23;;;;;;;16.40;8.43;;;8.70;99.90;;;;;;5031422;28;20415;-70
2021/11/16 11:40:05;;;;;;;16.00;9.43;;;8.60;99.90;;;;;;5019539;28;20547;-69
2021/11/16 11:42:34;;;;;;;19.37;9.60;;;8.60;99.90;;;;;;5054005;28;20497;-69
2021/11/16 11:45:10;;;;;;;23.50;7.87;;;8.70;99.90;;;;;;5058684;28;20486;-69
2021/11/16 11:47:40;;;;;;;21.20;10.33;;;8.80;99.90;;;;;;5059171;28;20523;-69
2021/11/16 11:50:32;;;;;;;18.43;9.40;;;8.70;99.90;;;;;;5058971;28;20808;-69
2021/11/16 11:53:00;;;;;;;23.63;11.80;;;8.60;99.90;;;;;;5059668;28;20397;-69
2021/11/16 11:55:28;;;;;;;17.17;9.27;;;8.50;99.90;;;;;;5059511;28;20470;-68
2021/11/16 11:57:54;;;;;;;23.77;10.80;;;8.60;99.90;;;;;;5058342;28;20429;-69
2021/11/16 12:00:21;;;;;;;22.50;11.03;;;8.70;99.90;;;;;;5055337;28;20430;-69
2021/11/16 12:02:48;;;;;;;24.30;10.83;;;8.60;99.90;;;;;;5042376;28;20414;-69
2021/11/16 12:05:13;;;;;;;20.13;9.93;;;8.60;99.90;;;;;;5034958;28;20493;-70
2021/11/16 12:07:39;;;;;;;19.80;9.77;;;8.60;99.90;;;;;;5035119;28;20989;-68
2021/11/16 12:10:05;;;;;;;26.23;10.83;;;8.80;99.90;;;;;;5034823;28;20193;-68
2021/11/16 12:12:31;;;;;;;20.50;10.80;;;8.80;99.90;;;;;;5035014;28;20226;-67
2021/11/16 12:15:06;;;;;;;18.73;8.43;;;8.80;99.90;;;;;;5034471;28;20443;-67
2021/11/16 12:17:39;;;;;;;16.57;9.37;;;8.70;99.90;;;;;;5034967;28;20192;-70
2021/11/16 12:20:05;;;;;;;25.77;12.13;;;8.70;99.90;;;;;;5034595;28;20903;-67
2021/11/16 12:22:32;;;;;;;20.67;9.27;;;8.60;99.90;;;;;;5034827;28;20499;-67
2021/11/16 12:25:17;;;;;;;20.53;10.40;;;8.60;99.90;;;;;;5034630;28;20408;-69
2021/11/16 12:27:43;;;;;;;19.30;10.20;;;8.60;99.90;;;;;;5034972;28;20465;-70
2021/11/16 12:30:10;;;;;;;20.57;9.73;;;8.70;99.90;;;;;;5034801;28;20858;-68
2021/11/16 12:32:45;;;;;;;20.43;8.43;;;8.60;99.90;;;;;;5034826;28;20182;-69
2021/11/16 12:35:12;;;;;;;19.00;10.30;;;8.80;99.90;;;;;;5034931;28;20412;-69
2021/11/16 12:37:46;;;;;;;22.67;9.80;;;8.80;99.90;;;;;;5035350;28;20413;-68
2021/11/16 12:40:16;;;;;;;24.20;12.73;;;8.80;99.90;;;;;;5034655;28;20446;-68
2021/11/16 12:43:07;;;;;;;29.63;10.40;;;8.80;99.90;;;;;;5034548;28;20408;-68
2021/11/16 12:45:49;;;;;;;20.70;10.17;;;8.80;99.90;;;;;;5034370;28;20403;-70
2021/11/16 12:48:17;;;;;;;26.77;12.23;;;8.70;99.90;;;;;;5034168;28;20465;-68
2021/11/16 12:51:13;;;;;;;26.73;11.47;;;8.60;99.90;;;;;;5034069;28;20426;-68
2021/11/16 12:54:02;;;;;;;19.50;10.30;;;8.60;99.90;;;;;;5026979;28;20405;-69
2021/11/16 12:56:42;;;;;;;17.63;9.53;;;8.60;99.90;;;;;;5017025;28;20404;-69
2021/11/16 12:59:12;;;;;;;22.07;9.90;;;8.70;99.90;;;;;;5022602;28;20435;-69
2021/11/16 13:02:04;;;;;;;17.83;9.20;;;8.80;99.90;;;;;;5027032;28;20409;-69
2021/11/16 13:04:46;;;;;;;13.97;8.43;;;8.70;99.90;;;;;;5033787;28;20952;-69
2021/11/16 13:07:39;;;;;;;19.50;10.60;;;8.70;99.90;;;;;;5033654;28;20424;-68
2021/11/16 13:10:10;;;;;;;16.60;9.60;;;8.60;99.90;;;;;;5027417;28;20518;-68
2021/11/16 13:12:38;;;;;;;20.70;8.23;;;8.50;99.90;;;;;;5014095;28;20402;-69
2021/11/16 13:15:24;;;;;;;24.37;9.60;;;8.50;99.90;;;;;;5025149;28;20989;-69
2021/11/16 13:17:56;;;;;;;21.90;9.10;;;8.50;99.90;;;;;;5040930;28;20542;-69
2021/11/16 13:20:32;;;;;;;21.23;11.30;;;8.40;99.90;;;;;;5053635;28;20480;-69